Quick Links (Output Below):   Max & Min Temps   /   Climate Reports   /   Zone Forecasts
River Forecasts   /   Forestry Forecasts   /   Aviation Forecasts   /   Radars   /   Features

Terminal Aerodrome Forecast (El Dorado)

Pick a Site:
Arkadelphia | El Dorado | Fayetteville | Fort Smith | Harrison | Highfill | Hot Springs | Jonesboro
Little Rock | Monticello | Mountain Home | Pine Bluff | Texarkana
 Forecast 

KELD 252355Z 2600/2624 VRB03KT P6SM VCTS SCT060CB BKN150
      TEMPO 2600/2602 -TSRA BKN060CB BKN120
     FM260400 06003KT P6SM SCT250
     FM260600 00000KT P6SM VCSH BKN050 BKN120
      TEMPO 2613/2615 BKN030 BKN120
     FM261600 09006KT P6SM SCT250=


 Latest METARs (Observations) 
How to Decode METARs
00Z KELD 252353Z AUTO 12012KT 10SM CLR 33/24 A2991 RMK AO2 LTG DSNT S
         SLP125 T03280239 10356 20328 53000
         
***** Today's Observations (Above) *****


23Z KELD 252253Z AUTO 10005KT 10SM FEW065 34/21 A2990 RMK AO2 LTG DSNT
         NW SLP122 T03440211
         
22Z KELD 252153Z AUTO 02003KT 10SM SCT055 36/21 A2991 RMK AO2 SLP125
         T03560206
         
21Z KELD 252053Z AUTO 06007KT 10SM BKN048 34/22 A2991 RMK AO2 SLP125
         T03440217 56026
         
20Z KELD 251953Z AUTO 02008KT 10SM CLR 35/22 A2993 RMK AO2 SLP132
         T03500217
         
19Z KELD 251853Z AUTO VRB03KT 10SM SCT080 34/22 A2996 RMK AO2 SLP143
         T03390217
         
18Z KELD 251753Z AUTO VRB03KT 10SM CLR 33/21 A2999 RMK AO2 SLP152
         T03330206 10333 20222 58009
         
17Z KELD 251653Z AUTO VRB04KT 10SM CLR 32/21 A3001 RMK AO2 SLP159
         T03220211
         
16Z KELD 251553Z AUTO 10007KT 10SM CLR 31/22 A3002 RMK AO2 SLP161
         T03060222
         
15Z KELD 251453Z AUTO VRB03KT 10SM CLR 29/22 A3002 RMK AO2 SLP161
         T02940217 51004
         
***** Yesterday's Observations (Above) *****


Back to Main Page
http://www.srh.noaa.gov/lzk/qfcst.php

USA.gov is the U.S. government's official web portal to all federal, state and local government web resources and services.